sensor_id;sensor_type;location;lat;lon;timestamp;pressure;altitude;pressure_sealevel;temperature;humidity
62725;BME280;49026;52.600;4.694;2023-05-20T00:00:32;102685.84;;;10.50;57.76
62725;BME280;49026;52.600;4.694;2023-05-20T00:02:58;102679.75;;;10.45;58.59
62725;BME280;49026;52.600;4.694;2023-05-20T00:05:25;102676.25;;;10.46;60.74
62725;BME280;49026;52.600;4.694;2023-05-20T00:07:50;102675.41;;;10.46;59.33
62725;BME280;49026;52.600;4.694;2023-05-20T00:10:15;102673.63;;;10.46;60.12
62725;BME280;49026;52.600;4.694;2023-05-20T00:12:43;102672.78;;;10.44;58.37
62725;BME280;49026;52.600;4.694;2023-05-20T00:15:08;102671.97;;;10.39;57.23
62725;BME280;49026;52.600;4.694;2023-05-20T00:17:36;102668.47;;;10.35;61.40
62725;BME280;49026;52.600;4.694;2023-05-20T00:20:04;102673.72;;;10.35;59.68
62725;BME280;49026;52.600;4.694;2023-05-20T00:22:30;102671.16;;;10.32;59.44
62725;BME280;49026;52.600;4.694;2023-05-20T00:24:56;102674.63;;;10.30;57.93
62725;BME280;49026;52.600;4.694;2023-05-20T00:27:21;102675.50;;;10.29;57.93
62725;BME280;49026;52.600;4.694;2023-05-20T00:29:46;102671.16;;;10.26;61.23
62725;BME280;49026;52.600;4.694;2023-05-20T00:32:12;102682.56;;;10.24;59.03
62725;BME280;49026;52.600;4.694;2023-05-20T00:34:38;102678.25;;;10.18;57.72
62725;BME280;49026;52.600;4.694;2023-05-20T00:37:03;102678.25;;;10.18;60.17
62725;BME280;49026;52.600;4.694;2023-05-20T00:39:28;102677.38;;;10.19;59.29
62725;BME280;49026;52.600;4.694;2023-05-20T00:41:54;102668.63;;;10.15;58.59
62725;BME280;49026;52.600;4.694;2023-05-20T00:44:25;102684.41;;;10.14;68.01
62725;BME280;49026;52.600;4.694;2023-05-20T00:46:51;102673.94;;;10.11;60.91
62725;BME280;49026;52.600;4.694;2023-05-20T00:49:17;102671.34;;;10.06;58.34
62725;BME280;49026;52.600;4.694;2023-05-20T00:51:43;102665.25;;;10.02;57.79
62725;BME280;49026;52.600;4.694;2023-05-20T00:54:11;102673.16;;;9.99;58.80
62725;BME280;49026;52.600;4.694;2023-05-20T00:56:37;102671.41;;;9.95;57.69
62725;BME280;49026;52.600;4.694;2023-05-20T00:59:03;102667.94;;;9.92;57.12
62725;BME280;49026;52.600;4.694;2023-05-20T01:01:30;102663.63;;;9.89;56.86
62725;BME280;49026;52.600;4.694;2023-05-20T01:03:56;102663.63;;;9.89;57.64
62725;BME280;49026;52.600;4.694;2023-05-20T01:06:23;102662.72;;;9.87;56.66
62725;BME280;49026;52.600;4.694;2023-05-20T01:08:48;102660.19;;;9.81;56.72
62725;BME280;49026;52.600;4.694;2023-05-20T01:11:25;102667.22;;;9.77;56.59
62725;BME280;49026;52.600;4.694;2023-05-20T01:13:58;102656.66;;;9.80;59.37
62725;BME280;49026;52.600;4.694;2023-05-20T01:16:27;102655.78;;;9.83;57.91
62725;BME280;49026;52.600;4.694;2023-05-20T01:18:58;102663.66;;;9.81;57.96
62725;BME280;49026;52.600;4.694;2023-05-20T01:21:26;102661.06;;;9.77;57.21
62725;BME280;49026;52.600;4.694;2023-05-20T01:23:53;102655.88;;;9.71;57.06
62725;BME280;49026;52.600;4.694;2023-05-20T01:26:19;102665.50;;;9.67;57.14
62725;BME280;49026;52.600;4.694;2023-05-20T01:28:48;102659.41;;;9.63;57.26
62725;BME280;49026;52.600;4.694;2023-05-20T01:31:23;102653.34;;;9.55;57.28
62725;BME280;49026;52.600;4.694;2023-05-20T01:33:54;102654.25;;;9.51;57.73
62725;BME280;49026;52.600;4.694;2023-05-20T01:36:20;102651.66;;;9.48;57.27
62725;BME280;49026;52.600;4.694;2023-05-20T01:38:49;102645.56;;;9.43;57.42
62725;BME280;49026;52.600;4.694;2023-05-20T01:41:15;102643.84;;;9.39;56.91
62725;BME280;49026;52.600;4.694;2023-05-20T01:43:42;102648.22;;;9.35;57.29
62725;BME280;49026;52.600;4.694;2023-05-20T01:46:07;102641.28;;;9.31;57.23
62725;BME280;49026;52.600;4.694;2023-05-20T01:48:33;102644.75;;;9.28;57.43
62725;BME280;49026;52.600;4.694;2023-05-20T01:50:58;102636.03;;;9.30;57.39
62725;BME280;49026;52.600;4.694;2023-05-20T01:53:24;102638.66;;;9.28;57.21
62725;BME280;49026;52.600;4.694;2023-05-20T01:55:49;102634.31;;;9.24;57.18
62725;BME280;49026;52.600;4.694;2023-05-20T01:58:17;102633.44;;;9.20;56.93
62725;BME280;49026;52.600;4.694;2023-05-20T02:00:45;102633.44;;;9.20;57.36
62725;BME280;49026;52.600;4.694;2023-05-20T02:03:10;102629.13;;;9.16;57.99
62725;BME280;49026;52.600;4.694;2023-05-20T02:05:35;102635.28;;;9.12;57.61
62725;BME280;49026;52.600;4.694;2023-05-20T02:08:00;102628.28;;;9.09;58.20
62725;BME280;49026;52.600;4.694;2023-05-20T02:10:26;102626.53;;;9.07;58.89
62725;BME280;49026;52.600;4.694;2023-05-20T02:12:51;102626.53;;;9.07;57.96
62725;BME280;49026;52.600;4.694;2023-05-20T02:15:18;102629.19;;;9.05;57.52
62725;BME280;49026;52.600;4.694;2023-05-20T02:17:45;102634.44;;;9.02;57.31
62725;BME280;49026;52.600;4.694;2023-05-20T02:20:11;102626.59;;;8.99;57.17
62725;BME280;49026;52.600;4.694;2023-05-20T02:22:40;102630.13;;;8.92;57.41
62725;BME280;49026;52.600;4.694;2023-05-20T02:25:05;102626.66;;;8.85;56.95
62725;BME280;49026;52.600;4.694;2023-05-20T02:27:31;102630.16;;;8.83;57.53
62725;BME280;49026;52.600;4.694;2023-05-20T02:29:56;102630.16;;;8.81;57.14
62725;BME280;49026;52.600;4.694;2023-05-20T02:32:24;102631.94;;;8.75;57.13
62725;BME280;49026;52.600;4.694;2023-05-20T02:34:55;102640.69;;;8.67;57.29
62725;BME280;49026;52.600;4.694;2023-05-20T02:37:21;102623.28;;;8.56;57.89
62725;BME280;49026;52.600;4.694;2023-05-20T02:39:48;102624.19;;;8.45;58.05
62725;BME280;49026;52.600;4.694;2023-05-20T02:42:16;102632.00;;;8.39;58.08
62725;BME280;49026;52.600;4.694;2023-05-20T02:44:41;102625.06;;;8.30;57.67
62725;BME280;49026;52.600;4.694;2023-05-20T02:47:07;102632.03;;;8.24;58.18
62725;BME280;49026;52.600;4.694;2023-05-20T02:49:32;102631.16;;;8.20;57.80
62725;BME280;49026;52.600;4.694;2023-05-20T02:51:57;102625.06;;;8.13;57.36
62725;BME280;49026;52.600;4.694;2023-05-20T02:54:25;102629.44;;;8.10;57.83
62725;BME280;49026;52.600;4.694;2023-05-20T02:56:50;102627.69;;;8.06;58.12
62725;BME280;49026;52.600;4.694;2023-05-20T02:59:17;102623.31;;;8.03;57.65
62725;BME280;49026;52.600;4.694;2023-05-20T03:01:43;102625.06;;;8.01;57.69
62725;BME280;49026;52.600;4.694;2023-05-20T03:04:08;102624.22;;;7.99;57.77
62725;BME280;49026;52.600;4.694;2023-05-20T03:06:33;102613.75;;;7.99;57.95
62725;BME280;49026;52.600;4.694;2023-05-20T03:08:59;102618.13;;;7.98;58.29
62725;BME280;49026;52.600;4.694;2023-05-20T03:11:24;102624.22;;;7.99;58.16
62725;BME280;49026;52.600;4.694;2023-05-20T03:13:50;102619.84;;;8.00;57.87
62725;BME280;49026;52.600;4.694;2023-05-20T03:16:17;102622.47;;;8.00;57.92
62725;BME280;49026;52.600;4.694;2023-05-20T03:18:43;102622.47;;;8.00;57.75
62725;BME280;49026;52.600;4.694;2023-05-20T03:21:10;102611.13;;;7.99;57.95
62725;BME280;49026;52.600;4.694;2023-05-20T03:23:35;102607.63;;;8.00;58.08
62725;BME280;49026;52.600;4.694;2023-05-20T03:26:01;102606.75;;;8.03;58.57
62725;BME280;49026;52.600;4.694;2023-05-20T03:28:27;102615.47;;;8.02;57.51
62725;BME280;49026;52.600;4.694;2023-05-20T03:30:52;102609.38;;;8.01;58.57
62725;BME280;49026;52.600;4.694;2023-05-20T03:33:17;102617.22;;;8.01;58.28
62725;BME280;49026;52.600;4.694;2023-05-20T03:35:43;102605.88;;;7.99;58.34
62725;BME280;49026;52.600;4.694;2023-05-20T03:38:08;102607.63;;;8.00;58.44
62725;BME280;49026;52.600;4.694;2023-05-20T03:40:33;102614.59;;;8.00;58.00
62725;BME280;49026;52.600;4.694;2023-05-20T03:42:58;102607.66;;;7.97;58.48
62725;BME280;49026;52.600;4.694;2023-05-20T03:45:24;102607.66;;;7.97;58.77
62725;BME280;49026;52.600;4.694;2023-05-20T03:47:49;102600.66;;;7.99;58.37
62725;BME280;49026;52.600;4.694;2023-05-20T03:50:15;102603.28;;;8.02;59.24
62725;BME280;49026;52.600;4.694;2023-05-20T03:52:41;102603.28;;;8.05;58.29
62725;BME280;49026;52.600;4.694;2023-05-20T03:55:06;102605.00;;;8.08;58.01
62725;BME280;49026;52.600;4.694;2023-05-20T03:57:32;102607.63;;;8.09;58.37
62725;BME280;49026;52.600;4.694;2023-05-20T03:59:58;102607.63;;;8.12;58.63
62725;BME280;49026;52.600;4.694;2023-05-20T04:02:23;102608.47;;;8.16;59.38
62725;BME280;49026;52.600;4.694;2023-05-20T04:04:51;102603.25;;;8.19;59.19
62725;BME280;49026;52.600;4.694;2023-05-20T04:07:17;102614.56;;;8.23;58.88
62725;BME280;49026;52.600;4.694;2023-05-20T04:09:42;102612.81;;;8.28;59.16
62725;BME280;49026;52.600;4.694;2023-05-20T04:12:08;102602.34;;;8.34;59.43
62725;BME280;49026;52.600;4.694;2023-05-20T04:14:35;102606.69;;;8.41;59.53
62725;BME280;49026;52.600;4.694;2023-05-20T04:17:05;102611.94;;;8.52;59.32
62725;BME280;49026;52.600;4.694;2023-05-20T04:19:30;102614.50;;;8.66;59.99
62725;BME280;49026;52.600;4.694;2023-05-20T04:21:58;102615.28;;;8.80;59.45
62725;BME280;49026;52.600;4.694;2023-05-20T04:24:24;102617.81;;;9.05;59.72
62725;BME280;49026;52.600;4.694;2023-05-20T04:26:50;102614.19;;;9.24;59.14
62725;BME280;49026;52.600;4.694;2023-05-20T04:29:16;102615.00;;;9.37;59.45
62725;BME280;49026;52.600;4.694;2023-05-20T04:31:43;102617.53;;;9.51;59.86
62725;BME280;49026;52.600;4.694;2023-05-20T04:34:09;102609.47;;;9.74;59.88
62725;BME280;49026;52.600;4.694;2023-05-20T04:36:36;102603.06;;;10.05;60.96
62725;BME280;49026;52.600;4.694;2023-05-20T04:39:03;102600.16;;;10.34;59.97
62725;BME280;49026;52.600;4.694;2023-05-20T04:41:29;102605.97;;;10.62;59.85
62725;BME280;49026;52.600;4.694;2023-05-20T04:43:57;102601.25;;;10.89;59.63
62725;BME280;49026;52.600;4.694;2023-05-20T04:46:24;102612.31;;;11.12;59.79
62725;BME280;49026;52.600;4.694;2023-05-20T04:48:50;102605.91;;;11.32;59.26
62725;BME280;49026;52.600;4.694;2023-05-20T04:51:15;102606.47;;;11.53;58.95
62725;BME280;49026;52.600;4.694;2023-05-20T04:53:40;102613.16;;;11.72;60.81
62725;BME280;49026;52.600;4.694;2023-05-20T04:56:09;102601.56;;;11.84;60.84
62725;BME280;49026;52.600;4.694;2023-05-20T04:58:34;102608.34;;;11.99;59.62
62725;BME280;49026;52.600;4.694;2023-05-20T05:01:02;102608.03;;;12.16;59.24
62725;BME280;49026;52.600;4.694;2023-05-20T05:03:30;102608.63;;;12.32;58.80
62725;BME280;49026;52.600;4.694;2023-05-20T05:05:58;102597.25;;;12.30;58.95
62725;BME280;49026;52.600;4.694;2023-05-20T05:08:24;102599.81;;;12.33;59.10
62725;BME280;49026;52.600;4.694;2023-05-20T05:10:50;102613.97;;;12.29;59.11
62725;BME280;49026;52.600;4.694;2023-05-20T05:13:16;102601.50;;;12.37;58.91
62725;BME280;49026;52.600;4.694;2023-05-20T05:15:41;102608.00;;;12.63;58.64
62725;BME280;49026;52.600;4.694;2023-05-20T05:18:08;102603.91;;;12.91;58.65
62725;BME280;49026;52.600;4.694;2023-05-20T05:20:36;102611.28;;;13.14;58.19
62725;BME280;49026;52.600;4.694;2023-05-20T05:23:01;102605.66;;;13.31;58.73
62725;BME280;49026;52.600;4.694;2023-05-20T05:25:29;102602.75;;;13.44;58.19
62725;BME280;49026;52.600;4.694;2023-05-20T05:27:54;102594.53;;;13.55;57.90
62725;BME280;49026;52.600;4.694;2023-05-20T05:30:20;102594.41;;;13.61;58.01
62725;BME280;49026;52.600;4.694;2023-05-20T05:32:50;102597.19;;;13.55;58.00
62725;BME280;49026;52.600;4.694;2023-05-20T05:35:16;102588.69;;;13.43;58.74
62725;BME280;49026;52.600;4.694;2023-05-20T05:37:43;102591.28;;;13.45;59.08
62725;BME280;49026;52.600;4.694;2023-05-20T05:40:09;102597.06;;;13.59;58.79
62725;BME280;49026;52.600;4.694;2023-05-20T05:42:37;102601.84;;;13.79;58.36
62725;BME280;49026;52.600;4.694;2023-05-20T05:45:02;102593.38;;;14.01;57.78
62725;BME280;49026;52.600;4.694;2023-05-20T05:47:27;102592.34;;;14.06;58.27
62725;BME280;49026;52.600;4.694;2023-05-20T05:49:56;102597.06;;;13.59;59.27
62725;BME280;49026;52.600;4.694;2023-05-20T05:52:22;102598.34;;;13.43;59.05
62725;BME280;49026;52.600;4.694;2023-05-20T05:54:47;102597.06;;;13.59;60.74
62725;BME280;49026;52.600;4.694;2023-05-20T05:57:12;102593.25;;;13.71;60.40
62725;BME280;49026;52.600;4.694;2023-05-20T05:59:38;102598.25;;;13.83;59.71
62725;BME280;49026;52.600;4.694;2023-05-20T06:02:03;102580.47;;;13.90;59.58
62725;BME280;49026;52.600;4.694;2023-05-20T06:04:28;102593.75;;;13.87;60.20
62725;BME280;49026;52.600;4.694;2023-05-20T06:06:54;102598.06;;;13.89;60.09
62725;BME280;49026;52.600;4.694;2023-05-20T06:09:21;102591.78;;;13.95;59.58
62725;BME280;49026;52.600;4.694;2023-05-20T06:11:49;102590.91;;;13.93;60.60
62725;BME280;49026;52.600;4.694;2023-05-20T06:14:16;102591.19;;;13.84;60.61
62725;BME280;49026;52.600;4.694;2023-05-20T06:16:44;102592.28;;;13.75;61.04
62725;BME280;49026;52.600;4.694;2023-05-20T06:19:09;102585.19;;;13.77;60.16
62725;BME280;49026;52.600;4.694;2023-05-20T06:21:34;102586.00;;;13.79;60.63
62725;BME280;49026;52.600;4.694;2023-05-20T06:24:02;102585.22;;;13.76;60.92
62725;BME280;49026;52.600;4.694;2023-05-20T06:26:28;102596.53;;;13.81;60.10
62725;BME280;49026;52.600;4.694;2023-05-20T06:28:53;102586.56;;;13.92;60.85
62725;BME280;49026;52.600;4.694;2023-05-20T06:31:18;102584.47;;;14.05;60.10
62725;BME280;49026;52.600;4.694;2023-05-20T06:33:44;102592.03;;;14.19;60.62
62725;BME280;49026;52.600;4.694;2023-05-20T06:36:09;102581.16;;;14.28;60.28
62725;BME280;49026;52.600;4.694;2023-05-20T06:38:35;102594.16;;;14.37;60.23
62725;BME280;49026;52.600;4.694;2023-05-20T06:41:00;102582.56;;;14.41;60.03
62725;BME280;49026;52.600;4.694;2023-05-20T06:43:26;102583.50;;;14.40;60.32
62725;BME280;49026;52.600;4.694;2023-05-20T06:45:54;102583.50;;;14.40;60.64
62725;BME280;49026;52.600;4.694;2023-05-20T06:48:22;102573.72;;;14.42;60.90
62725;BME280;49026;52.600;4.694;2023-05-20T06:50:47;102583.97;;;14.53;60.32
62725;BME280;49026;52.600;4.694;2023-05-20T06:53:12;102577.28;;;14.73;60.39
62725;BME280;49026;52.600;4.694;2023-05-20T06:55:40;102575.09;;;14.87;60.34
62725;BME280;49026;52.600;4.694;2023-05-20T06:58:06;102576.69;;;14.93;60.36
62725;BME280;49026;52.600;4.694;2023-05-20T07:00:31;102574.75;;;14.98;60.38
62725;BME280;49026;52.600;4.694;2023-05-20T07:02:56;102583.41;;;15.03;60.50
62725;BME280;49026;52.600;4.694;2023-05-20T07:05:22;102578.66;;;15.14;60.24
62725;BME280;49026;52.600;4.694;2023-05-20T07:07:48;102567.59;;;15.28;60.46
62725;BME280;49026;52.600;4.694;2023-05-20T07:10:14;102567.38;;;15.36;60.51
62725;BME280;49026;52.600;4.694;2023-05-20T07:12:42;102568.75;;;15.48;60.42
62725;BME280;49026;52.600;4.694;2023-05-20T07:15:08;102568.97;;;15.67;60.26
62725;BME280;49026;52.600;4.694;2023-05-20T07:17:35;102568.47;;;15.84;60.19
62725;BME280;49026;52.600;4.694;2023-05-20T07:20:01;102568.16;;;15.91;59.81
62725;BME280;49026;52.600;4.694;2023-05-20T07:22:30;102564.47;;;15.70;59.35
62725;BME280;49026;52.600;4.694;2023-05-20T07:24:55;102573.03;;;15.52;59.99
62725;BME280;49026;52.600;4.694;2023-05-20T07:27:23;102568.44;;;15.30;59.49
62725;BME280;49026;52.600;4.694;2023-05-20T07:29:48;102568.16;;;15.11;59.26
62725;BME280;49026;52.600;4.694;2023-05-20T07:32:14;102563.22;;;15.00;59.56
62725;BME280;49026;52.600;4.694;2023-05-20T07:34:39;102564.38;;;14.92;59.48
62725;BME280;49026;52.600;4.694;2023-05-20T07:37:14;102563.53;;;14.90;59.15
62725;BME280;49026;52.600;4.694;2023-05-20T07:39:40;102572.41;;;14.89;58.79
62725;BME280;49026;52.600;4.694;2023-05-20T07:42:05;102571.28;;;14.96;58.94
62725;BME280;49026;52.600;4.694;2023-05-20T07:44:30;102565.94;;;15.26;59.35
62725;BME280;49026;52.600;4.694;2023-05-20T07:46:56;102560.84;;;15.73;59.64
62725;BME280;49026;52.600;4.694;2023-05-20T07:49:21;102564.31;;;16.25;59.40
62725;BME280;49026;52.600;4.694;2023-05-20T07:51:46;102562.47;;;16.75;60.45
62725;BME280;49026;52.600;4.694;2023-05-20T07:54:14;102563.00;;;17.07;58.63
62725;BME280;49026;52.600;4.694;2023-05-20T07:56:39;102568.88;;;17.15;58.58
62725;BME280;49026;52.600;4.694;2023-05-20T07:59:07;102561.91;;;17.34;59.36
62725;BME280;49026;52.600;4.694;2023-05-20T08:01:35;102565.72;;;17.49;58.53
62725;BME280;49026;52.600;4.694;2023-05-20T08:04:01;102569.09;;;17.53;59.02
62725;BME280;49026;52.600;4.694;2023-05-20T08:06:26;102553.34;;;17.48;57.87
62725;BME280;49026;52.600;4.694;2023-05-20T08:08:51;102549.78;;;17.49;58.59
62725;BME280;49026;52.600;4.694;2023-05-20T08:11:20;102549.03;;;17.66;59.63
62725;BME280;49026;52.600;4.694;2023-05-20T08:13:46;102552.38;;;17.71;58.31
62725;BME280;49026;52.600;4.694;2023-05-20T08:16:12;102544.94;;;17.80;58.10
62725;BME280;49026;52.600;4.694;2023-05-20T08:18:40;102544.41;;;17.71;57.23
62725;BME280;49026;52.600;4.694;2023-05-20T08:21:05;102551.94;;;17.39;56.34
62725;BME280;49026;52.600;4.694;2023-05-20T08:23:36;102554.47;;;17.20;56.51
62725;BME280;49026;52.600;4.694;2023-05-20T08:26:01;102552.94;;;17.15;56.43
62725;BME280;49026;52.600;4.694;2023-05-20T08:28:28;102549.19;;;16.98;55.89
62725;BME280;49026;52.600;4.694;2023-05-20T08:30:53;102546.06;;;16.87;56.04
62725;BME280;49026;52.600;4.694;2023-05-20T08:33:19;102537.88;;;16.93;56.12
62725;BME280;49026;52.600;4.694;2023-05-20T08:35:48;102546.97;;;17.10;56.30
62725;BME280;49026;52.600;4.694;2023-05-20T08:38:13;102541.75;;;17.29;56.09
62725;BME280;49026;52.600;4.694;2023-05-20T08:40:39;102532.47;;;17.39;56.57
62725;BME280;49026;52.600;4.694;2023-05-20T08:43:07;102533.16;;;17.65;56.57
62725;BME280;49026;52.600;4.694;2023-05-20T08:45:33;102533.13;;;17.87;57.53
62725;BME280;49026;52.600;4.694;2023-05-20T08:48:02;102529.44;;;18.10;57.06
62725;BME280;49026;52.600;4.694;2023-05-20T08:50:28;102517.69;;;18.35;57.84
62725;BME280;49026;52.600;4.694;2023-05-20T08:52:54;102524.88;;;18.51;56.28
62725;BME280;49026;52.600;4.694;2023-05-20T08:55:35;102529.47;;;18.67;55.68
62725;BME280;49026;52.600;4.694;2023-05-20T08:58:02;102517.09;;;18.85;56.58
62725;BME280;49026;52.600;4.694;2023-05-20T09:00:27;102511.88;;;19.01;55.77
62725;BME280;49026;52.600;4.694;2023-05-20T09:02:54;102516.16;;;18.86;54.39
62725;BME280;49026;52.600;4.694;2023-05-20T09:05:20;102508.25;;;18.84;55.58
62725;BME280;49026;52.600;4.694;2023-05-20T09:07:45;102505.50;;;18.67;54.47
62725;BME280;49026;52.600;4.694;2023-05-20T09:10:11;102506.28;;;18.69;54.95
62725;BME280;49026;52.600;4.694;2023-05-20T09:12:37;102492.47;;;18.80;53.65
62725;BME280;49026;52.600;4.694;2023-05-20T09:15:03;102503.91;;;18.82;53.88
62725;BME280;49026;52.600;4.694;2023-05-20T09:17:29;102505.47;;;19.05;53.98
62725;BME280;49026;52.600;4.694;2023-05-20T09:19:54;102506.50;;;19.20;54.38
62725;BME280;49026;52.600;4.694;2023-05-20T09:22:23;102496.69;;;19.20;53.75
62725;BME280;49026;52.600;4.694;2023-05-20T09:24:50;102501.94;;;19.04;52.72
62725;BME280;49026;52.600;4.694;2023-05-20T09:27:16;102494.75;;;19.06;53.38
62725;BME280;49026;52.600;4.694;2023-05-20T09:29:41;102487.72;;;19.23;53.55
62725;BME280;49026;52.600;4.694;2023-05-20T09:32:09;102492.16;;;19.40;52.93
62725;BME280;49026;52.600;4.694;2023-05-20T09:34:35;102491.28;;;19.39;51.92
62725;BME280;49026;52.600;4.694;2023-05-20T09:37:08;102486.66;;;19.25;52.07
62725;BME280;49026;52.600;4.694;2023-05-20T09:42:21;102490.44;;;19.21;53.05
62725;BME280;49026;52.600;4.694;2023-05-20T09:44:49;102484.00;;;19.25;52.32
62725;BME280;49026;52.600;4.694;2023-05-20T09:47:15;102485.91;;;19.23;51.53
62725;BME280;49026;52.600;4.694;2023-05-20T09:49:47;102482.91;;;19.12;51.62
62725;BME280;49026;52.600;4.694;2023-05-20T09:52:14;102479.09;;;19.18;52.64
62725;BME280;49026;52.600;4.694;2023-05-20T09:54:41;102486.34;;;19.49;52.68
62725;BME280;49026;52.600;4.694;2023-05-20T09:57:08;102474.72;;;19.68;53.02
62725;BME280;49026;52.600;4.694;2023-05-20T09:59:36;102473.00;;;19.67;51.06
62725;BME280;49026;52.600;4.694;2023-05-20T10:02:01;102463.59;;;19.77;51.13
62725;BME280;49026;52.600;4.694;2023-05-20T10:04:30;102467.53;;;19.70;49.78
62725;BME280;49026;52.600;4.694;2023-05-20T10:09:25;102462.41;;;19.83;49.84
62725;BME280;49026;52.600;4.694;2023-05-20T10:15:13;102454.28;;;20.02;48.06
62725;BME280;49026;52.600;4.694;2023-05-20T10:20:44;102451.31;;;20.71;47.96
62725;BME280;49026;52.600;4.694;2023-05-20T10:23:26;102439.56;;;20.74;42.46
62725;BME280;49026;52.600;4.694;2023-05-20T10:25:53;102435.88;;;20.77;45.53
62725;BME280;49026;52.600;4.694;2023-05-20T10:28:33;102427.66;;;20.80;32.80
62725;BME280;49026;52.600;4.694;2023-05-20T10:31:00;102433.56;;;20.70;45.13
62725;BME280;49026;52.600;4.694;2023-05-20T10:33:28;102432.69;;;20.54;44.27
62725;BME280;49026;52.600;4.694;2023-05-20T10:35:58;102429.75;;;20.59;45.39
62725;BME280;49026;52.600;4.694;2023-05-20T10:38:24;102432.50;;;20.73;45.32
62725;BME280;49026;52.600;4.694;2023-05-20T10:40:49;102423.91;;;20.68;44.44
62725;BME280;49026;52.600;4.694;2023-05-20T10:43:24;102422.41;;;20.62;44.76
62725;BME280;49026;52.600;4.694;2023-05-20T10:45:51;102428.56;;;20.64;45.53
62725;BME280;49026;52.600;4.694;2023-05-20T10:48:30;102410.03;;;20.77;44.81
62725;BME280;49026;52.600;4.694;2023-05-20T10:50:59;102425.78;;;20.82;45.00
62725;BME280;49026;52.600;4.694;2023-05-20T10:53:28;102416.63;;;20.86;46.49
62725;BME280;49026;52.600;4.694;2023-05-20T10:55:55;102414.25;;;21.26;46.53
62725;BME280;49026;52.600;4.694;2023-05-20T10:58:22;102402.41;;;21.44;46.30
62725;BME280;49026;52.600;4.694;2023-05-20T11:00:48;102409.47;;;21.17;44.47
62725;BME280;49026;52.600;4.694;2023-05-20T11:03:15;102400.38;;;21.05;45.30
62725;BME280;49026;52.600;4.694;2023-05-20T11:05:46;102406.09;;;20.99;45.64
62725;BME280;49026;52.600;4.694;2023-05-20T11:08:15;102389.03;;;21.16;44.96
62725;BME280;49026;52.600;4.694;2023-05-20T11:10:41;102391.59;;;21.32;46.79
62725;BME280;49026;52.600;4.694;2023-05-20T11:13:07;102390.03;;;21.43;46.54
62725;BME280;49026;52.600;4.694;2023-05-20T11:15:34;102382.00;;;21.43;46.65
62725;BME280;49026;52.600;4.694;2023-05-20T11:18:02;102389.16;;;21.43;46.63
62725;BME280;49026;52.600;4.694;2023-05-20T11:20:29;102381.06;;;21.59;46.77
62725;BME280;49026;52.600;4.694;2023-05-20T11:22:58;102384.97;;;21.68;46.35
62725;BME280;49026;52.600;4.694;2023-05-20T11:25:26;102382.50;;;21.64;46.06
62725;BME280;49026;52.600;4.694;2023-05-20T11:27:54;102378.22;;;21.62;44.93
62725;BME280;49026;52.600;4.694;2023-05-20T11:30:20;102383.94;;;21.70;46.49
62725;BME280;49026;52.600;4.694;2023-05-20T11:32:59;102375.88;;;21.84;45.69
62725;BME280;49026;52.600;4.694;2023-05-20T11:35:26;102370.63;;;21.83;45.84
62725;BME280;49026;52.600;4.694;2023-05-20T11:37:55;102366.47;;;22.06;46.30
62725;BME280;49026;52.600;4.694;2023-05-20T11:40:24;102370.94;;;22.20;45.37
62725;BME280;49026;52.600;4.694;2023-05-20T11:42:54;102380.97;;;22.31;42.99
62725;BME280;49026;52.600;4.694;2023-05-20T11:45:20;102377.00;;;22.09;35.36
62725;BME280;49026;52.600;4.694;2023-05-20T11:47:45;102379.38;;;22.14;43.93
62725;BME280;49026;52.600;4.694;2023-05-20T11:50:18;102376.19;;;22.21;42.84
62725;BME280;49026;52.600;4.694;2023-05-20T11:52:44;102375.13;;;22.24;43.81
62725;BME280;49026;52.600;4.694;2023-05-20T11:55:09;102374.78;;;22.30;40.50
62725;BME280;49026;52.600;4.694;2023-05-20T11:57:37;102365.19;;;22.26;41.85
62725;BME280;49026;52.600;4.694;2023-05-20T12:00:02;102367.38;;;22.61;42.65
62725;BME280;49026;52.600;4.694;2023-05-20T12:02:31;102343.13;;;22.50;43.35
62725;BME280;49026;52.600;4.694;2023-05-20T12:04:58;102377.31;;;22.32;43.25
62725;BME280;49026;52.600;4.694;2023-05-20T12:07:24;102365.66;;;22.33;43.89
62725;BME280;49026;52.600;4.694;2023-05-20T12:09:50;102340.97;;;22.55;44.00
62725;BME280;49026;52.600;4.694;2023-05-20T12:12:15;102361.16;;;22.61;42.78
62725;BME280;49026;52.600;4.694;2023-05-20T12:14:41;102350.78;;;22.42;42.58
62725;BME280;49026;52.600;4.694;2023-05-20T12:17:06;102348.47;;;21.81;42.75
62725;BME280;49026;52.600;4.694;2023-05-20T12:19:31;102345.31;;;21.45;43.24
62725;BME280;49026;52.600;4.694;2023-05-20T12:21:59;102351.06;;;21.68;43.33
62725;BME280;49026;52.600;4.694;2023-05-20T12:24:24;102345.25;;;21.61;42.98
62725;BME280;49026;52.600;4.694;2023-05-20T12:26:50;102343.69;;;21.43;43.17
62725;BME280;49026;52.600;4.694;2023-05-20T12:29:15;102336.34;;;21.75;43.92
62725;BME280;49026;52.600;4.694;2023-05-20T12:31:40;102346.06;;;21.91;43.00
62725;BME280;49026;52.600;4.694;2023-05-20T12:34:05;102336.72;;;21.83;38.40
62725;BME280;49026;52.600;4.694;2023-05-20T12:36:31;102337.66;;;21.97;42.84
62725;BME280;49026;52.600;4.694;2023-05-20T12:39:00;102334.13;;;22.24;43.15
62725;BME280;49026;52.600;4.694;2023-05-20T12:41:27;102334.97;;;22.51;43.09
62725;BME280;49026;52.600;4.694;2023-05-20T12:43:52;102329.25;;;22.70;43.93
62725;BME280;49026;52.600;4.694;2023-05-20T12:46:18;102328.38;;;22.57;42.75
62725;BME280;49026;52.600;4.694;2023-05-20T12:48:43;102319.56;;;22.00;42.42
62725;BME280;49026;52.600;4.694;2023-05-20T12:51:08;102322.91;;;21.62;42.99
62725;BME280;49026;52.600;4.694;2023-05-20T12:53:36;102325.38;;;21.22;43.14
62725;BME280;49026;52.600;4.694;2023-05-20T12:56:01;102316.66;;;20.90;43.32
62725;BME280;49026;52.600;4.694;2023-05-20T12:58:27;102309.38;;;20.78;43.13
62725;BME280;49026;52.600;4.694;2023-05-20T13:00:52;102320.88;;;21.08;43.34